createdAt,value
2019-02-16T00:01:25.445Z,22.27
2019-02-16T00:03:55.895Z,18.60
2019-02-16T00:06:26.221Z,17.57
2019-02-16T00:08:56.841Z,17.73
2019-02-16T00:11:27.249Z,16.30
2019-02-16T00:13:57.636Z,15.67
2019-02-16T00:16:28.252Z,16.97
2019-02-16T00:18:58.836Z,14.93
2019-02-16T00:21:29.219Z,15.43
2019-02-16T00:23:59.936Z,15.43
2019-02-16T00:26:30.318Z,15.37
2019-02-16T00:29:00.707Z,15.97
2019-02-16T00:31:31.323Z,15.43
2019-02-16T00:34:03.846Z,15.40
2019-02-16T00:36:34.997Z,14.70
2019-02-16T00:39:05.453Z,15.67
2019-02-16T00:41:35.875Z,14.33
2019-02-16T00:44:06.190Z,13.83
2019-02-16T00:46:36.567Z,13.10
2019-02-16T00:49:06.962Z,12.97
2019-02-16T00:51:40.438Z,13.17
2019-02-16T00:54:10.903Z,12.97
2019-02-16T00:57:03.483Z,13.47
2019-02-16T00:59:34.422Z,12.73
2019-02-16T01:02:05.845Z,13.23
2019-02-16T01:04:36.235Z,13.13
2019-02-16T01:07:06.683Z,13.57
2019-02-16T01:09:38.044Z,13.00
2019-02-16T01:12:08.440Z,12.97
2019-02-16T01:14:38.890Z,13.00
2019-02-16T01:17:10.047Z,13.77
2019-02-16T01:19:40.688Z,13.53
2019-02-16T01:22:12.113Z,12.60
2019-02-16T01:24:44.611Z,13.13
2019-02-16T01:27:15.007Z,12.43
2019-02-16T01:29:45.470Z,12.70
2019-02-16T01:32:15.852Z,12.93
2019-02-16T01:34:46.383Z,12.43
2019-02-16T01:37:16.772Z,11.43
2019-02-16T01:39:47.337Z,11.73
2019-02-16T01:42:18.092Z,11.67
2019-02-16T01:44:50.533Z,11.43
2019-02-16T01:47:21.627Z,12.53
2019-02-16T01:49:52.266Z,11.60
2019-02-16T01:52:22.843Z,12.03
2019-02-16T01:54:54.295Z,12.80
2019-02-16T01:57:25.460Z,11.47
2019-02-16T01:59:56.040Z,11.40
2019-02-16T02:02:26.657Z,11.27
2019-02-16T02:04:56.978Z,11.80
2019-02-16T02:10:16.091Z,11.57
2019-02-16T02:12:46.476Z,12.30
2019-02-16T02:15:23.387Z,11.47
2019-02-16T02:17:53.784Z,12.47
2019-02-16T02:20:24.106Z,11.90
2019-02-16T02:22:54.539Z,12.17
2019-02-16T02:25:43.205Z,12.27
2019-02-16T02:28:13.672Z,12.23
2019-02-16T02:30:44.817Z,11.53
2019-02-16T02:33:15.977Z,11.20
2019-02-16T02:35:46.565Z,15.37
2019-02-16T02:38:16.949Z,12.87
2019-02-16T02:40:47.520Z,12.67
2019-02-16T02:43:18.095Z,11.80
2019-02-16T02:45:49.330Z,11.70
2019-02-16T02:48:20.660Z,12.70
2019-02-16T02:50:51.037Z,12.27
2019-02-16T02:53:30.774Z,12.17
2019-02-16T02:55:51.804Z,11.53
2019-02-16T02:58:41.869Z,12.60
2019-02-16T03:01:12.251Z,11.93
2019-02-16T03:03:42.653Z,13.13
2019-02-16T03:06:14.071Z,11.70
2019-02-16T03:08:44.596Z,11.63
2019-02-16T03:11:14.918Z,11.47
2019-02-16T03:13:46.332Z,12.13
2019-02-16T03:16:17.497Z,12.13
2019-02-16T03:18:47.885Z,11.47
2019-02-16T03:21:18.275Z,12.00
2019-02-16T03:23:48.732Z,12.10
2019-02-16T03:26:36.570Z,12.23
2019-02-16T03:29:09.900Z,12.10
2019-02-16T03:32:13.016Z,12.13
2019-02-16T03:34:54.953Z,12.37
2019-02-16T03:37:46.078Z,10.77
2019-02-16T03:40:16.655Z,11.90
2019-02-16T03:42:47.095Z,11.07
2019-02-16T03:45:17.536Z,12.30
2019-02-16T03:47:51.961Z,11.83
2019-02-16T03:50:24.634Z,12.23
2019-02-16T03:52:55.042Z,11.20
2019-02-16T03:55:26.204Z,9.83
2019-02-16T03:57:56.648Z,11.13
2019-02-16T04:00:48.385Z,11.10
2019-02-16T04:03:18.816Z,12.30
2019-02-16T04:05:49.224Z,12.57
2019-02-16T04:08:19.604Z,11.80
2019-02-16T04:10:50.765Z,12.00
2019-02-16T04:13:21.205Z,13.03
2019-02-16T04:15:51.591Z,12.20
2019-02-16T04:18:21.932Z,12.63
2019-02-16T04:20:53.133Z,12.40
2019-02-16T04:23:23.715Z,12.37
2019-02-16T04:25:54.881Z,12.60
2019-02-16T04:28:25.270Z,12.10
2019-02-16T04:30:55.642Z,11.97
2019-02-16T04:33:26.230Z,11.90
2019-02-16T04:35:57.082Z,11.63
2019-02-16T04:38:27.659Z,11.87
2019-02-16T04:41:01.108Z,12.87
2019-02-16T04:43:32.292Z,12.60
2019-02-16T04:46:04.805Z,12.13
2019-02-16T04:48:35.197Z,12.37
2019-02-16T04:51:07.889Z,12.13
2019-02-16T04:53:38.247Z,13.20
2019-02-16T04:56:08.643Z,13.37
2019-02-16T04:58:41.111Z,12.57
2019-02-16T05:01:32.934Z,12.67
2019-02-16T05:04:03.593Z,13.17
2019-02-16T05:06:33.925Z,12.33
2019-02-16T05:09:04.259Z,11.60
2019-02-16T05:11:35.545Z,12.47
2019-02-16T05:14:06.114Z,12.50
2019-02-16T05:16:37.760Z,12.00
2019-02-16T05:19:27.541Z,12.10
2019-02-16T05:21:58.185Z,12.27
2019-02-16T05:24:28.592Z,13.30
2019-02-16T05:26:58.990Z,12.17
2019-02-16T05:29:29.381Z,11.10
2019-02-16T05:31:59.814Z,11.47
2019-02-16T05:34:30.554Z,12.60
2019-02-16T05:37:00.945Z,12.47
2019-02-16T05:39:50.719Z,11.50
2019-02-16T05:42:26.416Z,13.00
2019-02-16T05:44:56.885Z,13.17
2019-02-16T05:47:27.281Z,12.00
2019-02-16T05:49:58.435Z,13.03
2019-02-16T05:52:28.874Z,13.90
2019-02-16T05:55:00.319Z,13.90
2019-02-16T05:57:31.638Z,13.40
2019-02-16T06:00:02.092Z,16.03
2019-02-16T06:02:32.370Z,16.80
2019-02-16T06:05:02.945Z,17.80
2019-02-16T06:07:33.399Z,16.77
2019-02-16T06:10:06.862Z,16.53
2019-02-16T06:12:38.062Z,16.60
2019-02-16T06:15:15.823Z,16.70
2019-02-16T06:17:46.272Z,16.60
2019-02-16T06:20:18.700Z,15.93
2019-02-16T06:25:33.641Z,16.37
2019-02-16T06:28:11.344Z,17.97
2019-02-16T06:31:01.922Z,18.47
2019-02-16T06:33:32.514Z,17.17
2019-02-16T06:36:03.730Z,16.43
2019-02-16T06:38:34.055Z,15.93
2019-02-16T06:41:04.455Z,15.70
2019-02-16T06:43:35.271Z,15.50
2019-02-16T06:46:05.932Z,17.23
2019-02-16T06:48:38.372Z,17.53
2019-02-16T06:51:10.248Z,17.90
2019-02-16T06:53:40.831Z,15.83
2019-02-16T06:56:14.066Z,16.43
2019-02-16T06:58:44.459Z,16.23
2019-02-16T07:01:14.856Z,17.23
2019-02-16T07:04:06.655Z,16.40
2019-02-16T07:06:37.186Z,16.83
2019-02-16T07:09:07.502Z,16.43
2019-02-16T07:11:37.830Z,15.97
2019-02-16T07:14:10.388Z,16.40
2019-02-16T07:16:43.457Z,15.17
2019-02-16T07:19:16.725Z,15.60
2019-02-16T07:21:48.143Z,17.00
2019-02-16T07:24:18.543Z,16.10
2019-02-16T07:26:48.966Z,15.67
2019-02-16T07:29:19.302Z,15.93
2019-02-16T07:31:49.635Z,14.63
2019-02-16T07:34:20.924Z,14.37
2019-02-16T07:36:57.627Z,14.47
2019-02-16T07:39:28.098Z,15.47
2019-02-16T07:41:59.451Z,14.90
2019-02-16T07:44:47.992Z,16.20
2019-02-16T07:47:20.815Z,15.63
2019-02-16T07:50:30.486Z,15.43
2019-02-16T07:53:03.336Z,16.90
2019-02-16T07:55:33.793Z,16.57
2019-02-16T07:58:21.969Z,16.80
2019-02-16T08:00:53.360Z,17.20
2019-02-16T08:03:23.755Z,17.87
2019-02-16T08:06:00.951Z,15.70
2019-02-16T08:08:31.359Z,16.33
2019-02-16T08:11:10.681Z,15.93
2019-02-16T08:13:47.177Z,15.43
2019-02-16T08:16:17.557Z,16.43
2019-02-16T08:18:50.675Z,16.07
2019-02-16T08:21:21.835Z,14.23
2019-02-16T08:24:10.482Z,14.73
2019-02-16T08:26:59.852Z,15.60
2019-02-16T08:29:49.146Z,16.80
2019-02-16T08:32:40.676Z,16.03
2019-02-16T08:35:23.066Z,14.87
2019-02-16T08:37:53.524Z,15.20
2019-02-16T08:40:44.210Z,15.03
2019-02-16T08:43:14.609Z,16.97
2019-02-16T08:45:45.021Z,15.60
2019-02-16T08:48:21.458Z,15.83
2019-02-16T08:51:10.504Z,16.40
2019-02-16T08:53:49.327Z,16.17
2019-02-16T08:56:13.384Z,16.27
2019-02-16T08:58:43.715Z,15.97
2019-02-16T09:01:14.342Z,14.43
2019-02-16T09:03:47.589Z,14.37
2019-02-16T09:06:36.411Z,13.73
2019-02-16T09:09:06.884Z,24.77
2019-02-16T09:11:40.037Z,15.63
2019-02-16T09:14:29.121Z,15.07
2019-02-16T09:17:24.905Z,15.53
2019-02-16T09:20:00.802Z,14.30
2019-02-16T09:22:39.957Z,13.73
2019-02-16T09:25:28.750Z,14.73
2019-02-16T09:27:59.152Z,15.30
2019-02-16T09:30:47.805Z,15.10
2019-02-16T09:33:23.946Z,14.27
2019-02-16T09:38:45.678Z,14.10
2019-02-16T09:41:16.256Z,14.87
2019-02-16T09:43:47.595Z,16.30
2019-02-16T09:46:30.185Z,15.57
2019-02-16T09:49:00.707Z,15.73
2019-02-16T09:51:34.157Z,15.77
2019-02-16T09:54:08.636Z,15.60
2019-02-16T09:56:37.760Z,15.47
2019-02-16T09:59:09.112Z,16.57
2019-02-16T10:01:40.330Z,12.10
2019-02-16T10:04:25.788Z,14.80
2019-02-16T10:06:56.117Z,14.70
2019-02-16T10:09:31.672Z,15.10
2019-02-16T10:12:02.055Z,15.30
2019-02-16T10:14:38.459Z,14.37
2019-02-16T10:17:30.262Z,16.27
2019-02-16T10:20:05.297Z,16.07
2019-02-16T10:22:41.567Z,16.20
2019-02-16T10:25:30.147Z,15.17
2019-02-16T10:28:18.302Z,14.47
2019-02-16T10:31:04.001Z,14.60
2019-02-16T10:33:40.236Z,13.97
2019-02-16T10:36:13.699Z,15.00
2019-02-16T10:39:02.265Z,13.63
2019-02-16T10:41:32.770Z,13.93
2019-02-16T10:44:16.003Z,15.30
2019-02-16T10:46:55.794Z,13.10
2019-02-16T10:49:28.609Z,12.93
2019-02-16T10:51:59.832Z,14.20
2019-02-16T10:54:30.241Z,15.50
2019-02-16T10:57:00.615Z,14.23
2019-02-16T10:59:35.482Z,20.45
2019-02-16T11:02:09.480Z,21.02
2019-02-16T11:04:48.901Z,14.47
2019-02-16T11:07:22.769Z,11.73
2019-02-16T11:10:17.934Z,11.63
2019-02-16T11:12:48.256Z,10.70
2019-02-16T11:15:27.893Z,10.27
2019-02-16T11:17:58.292Z,11.50
2019-02-16T11:20:30.731Z,9.70
2019-02-16T11:23:19.225Z,10.20
2019-02-16T11:25:59.286Z,10.63
2019-02-16T11:28:48.619Z,11.47
2019-02-16T11:31:51.351Z,10.03
2019-02-16T11:34:22.496Z,9.50
2019-02-16T11:36:53.594Z,14.18
2019-02-16T11:39:33.077Z,10.70
2019-02-16T11:42:06.654Z,9.80
2019-02-16T11:44:55.412Z,10.30
2019-02-16T11:50:32.649Z,10.13
2019-02-16T11:53:03.031Z,10.03
2019-02-16T11:55:33.432Z,9.47
2019-02-16T11:58:09.540Z,8.63
2019-02-16T12:00:57.720Z,9.13
2019-02-16T12:03:46.413Z,8.27
2019-02-16T12:06:22.641Z,9.73
2019-02-16T12:08:56.434Z,9.13
2019-02-16T12:11:39.702Z,9.37
2019-02-16T12:14:13.218Z,9.53
2019-02-16T12:17:01.583Z,9.13
2019-02-16T12:19:50.244Z,9.03
2019-02-16T12:22:21.922Z,9.57
2019-02-16T12:25:05.049Z,9.60
2019-02-16T12:27:25.405Z,9.53
2019-02-16T12:29:58.602Z,9.27
2019-02-16T12:32:29.058Z,9.23
2019-02-16T12:35:09.412Z,8.33
2019-02-16T12:37:58.784Z,7.53
2019-02-16T12:40:38.814Z,6.80
2019-02-16T12:43:09.252Z,7.77
2019-02-16T12:45:40.411Z,7.57
2019-02-16T12:48:19.696Z,6.93
2019-02-16T12:50:52.848Z,7.12
2019-02-16T12:53:41.633Z,6.83
2019-02-16T12:56:12.022Z,6.60
2019-02-16T12:58:46.043Z,6.33
2019-02-16T13:01:31.502Z,5.60
2019-02-16T13:04:22.449Z,6.10
2019-02-16T13:06:56.000Z,5.53
2019-02-16T13:09:29.528Z,5.53
2019-02-16T13:12:00.866Z,5.53
2019-02-16T13:14:32.159Z,5.80
2019-02-16T13:17:19.600Z,5.30
2019-02-16T13:19:55.728Z,5.73
2019-02-16T13:22:35.479Z,6.00
2019-02-16T13:25:05.930Z,5.50
2019-02-16T13:27:42.863Z,5.60
2019-02-16T13:30:21.504Z,6.00
2019-02-16T13:32:51.892Z,4.80
2019-02-16T13:35:30.953Z,5.17
2019-02-16T13:38:15.514Z,5.33
2019-02-16T13:41:01.133Z,5.30
2019-02-16T13:43:31.521Z,4.83
2019-02-16T13:46:01.935Z,5.60
2019-02-16T13:48:33.298Z,6.03
2019-02-16T13:51:06.221Z,5.83
2019-02-16T13:53:56.236Z,5.87
2019-02-16T13:56:32.461Z,5.40
2019-02-16T14:02:12.088Z,5.80
2019-02-16T14:04:44.510Z,5.90
2019-02-16T14:07:20.725Z,5.43
2019-02-16T14:10:04.875Z,5.33
2019-02-16T14:12:56.582Z,5.33
2019-02-16T14:15:30.177Z,5.20
2019-02-16T14:18:00.571Z,5.40
2019-02-16T14:20:30.967Z,5.57
2019-02-16T14:23:01.411Z,6.50
2019-02-16T14:25:42.851Z,6.07
2019-02-16T14:28:04.886Z,5.80
2019-02-16T14:30:36.131Z,8.10
2019-02-16T14:33:07.497Z,5.83
2019-02-16T14:35:37.950Z,6.93
2019-02-16T14:38:10.320Z,6.33
2019-02-16T14:40:41.729Z,8.52
2019-02-16T14:43:12.169Z,6.10
2019-02-16T14:45:43.448Z,6.20
2019-02-16T14:48:14.025Z,5.93
2019-02-16T14:50:44.465Z,5.60
2019-02-16T14:53:15.611Z,5.43
2019-02-16T14:55:53.920Z,5.73
2019-02-16T14:58:19.033Z,6.17
2019-02-16T15:00:50.605Z,5.97
2019-02-16T15:03:21.765Z,5.73
2019-02-16T15:05:53.110Z,5.53
2019-02-16T15:08:23.564Z,7.13
2019-02-16T15:10:53.961Z,5.73
2019-02-16T15:13:24.352Z,5.47
2019-02-16T15:15:54.791Z,4.97
2019-02-16T15:18:25.892Z,5.10
2019-02-16T15:20:56.476Z,4.77
2019-02-16T15:23:27.850Z,4.70
2019-02-16T15:26:01.125Z,4.90
2019-02-16T15:28:33.079Z,4.63
2019-02-16T15:31:03.472Z,4.77
2019-02-16T15:33:33.855Z,5.27
2019-02-16T15:36:04.496Z,4.93
2019-02-16T15:38:41.287Z,5.23
2019-02-16T15:41:32.302Z,5.00
2019-02-16T15:44:03.918Z,5.23
2019-02-16T15:46:35.076Z,5.70
2019-02-16T15:49:05.774Z,4.87
2019-02-16T15:51:36.172Z,5.10
2019-02-16T15:54:06.743Z,5.50
2019-02-16T15:56:40.004Z,5.70
2019-02-16T15:59:10.419Z,5.67
2019-02-16T16:01:41.123Z,5.83
2019-02-16T16:04:11.421Z,5.43
2019-02-16T16:06:41.809Z,5.87
2019-02-16T16:09:12.187Z,6.40
2019-02-16T16:11:42.593Z,6.23
2019-02-16T16:14:17.034Z,6.20
2019-02-16T16:16:53.052Z,5.67
2019-02-16T16:19:34.464Z,6.07
2019-02-16T16:22:10.713Z,6.73
2019-02-16T16:24:41.113Z,6.70
2019-02-16T16:27:17.401Z,6.27
2019-02-16T16:29:53.421Z,6.07
2019-02-16T16:32:44.204Z,6.17
2019-02-16T16:35:29.474Z,6.70
2019-02-16T16:38:02.541Z,6.40
2019-02-16T16:40:36.825Z,6.80
2019-02-16T16:43:07.157Z,6.67
2019-02-16T16:45:40.570Z,10.48
2019-02-16T16:48:19.906Z,8.47
2019-02-16T16:51:05.127Z,8.85
2019-02-16T16:53:38.856Z,6.93
2019-02-16T16:56:08.747Z,7.27
2019-02-16T16:58:39.163Z,7.47
2019-02-16T17:01:09.803Z,8.07
2019-02-16T17:03:40.393Z,8.17
2019-02-16T17:09:15.055Z,8.30
2019-02-16T17:11:45.704Z,8.50
2019-02-16T17:14:22.359Z,9.07
2019-02-16T17:17:11.816Z,9.90
2019-02-16T17:19:42.159Z,8.47
2019-02-16T17:22:24.492Z,9.83
2019-02-16T17:24:55.110Z,8.73
2019-02-16T17:27:28.363Z,8.97
2019-02-16T17:29:59.754Z,8.47
2019-02-16T17:32:40.258Z,8.20
2019-02-16T17:35:29.736Z,17.57
2019-02-16T17:38:07.818Z,17.80
2019-02-16T17:40:46.865Z,17.33
2019-02-16T17:43:24.963Z,13.93
2019-02-16T17:45:57.531Z,12.77
2019-02-16T17:48:39.510Z,10.87
2019-02-16T17:51:15.676Z,10.40
2019-02-16T17:53:51.744Z,9.63
2019-02-16T17:56:35.121Z,8.53
2019-02-16T17:59:11.521Z,15.90
2019-02-16T18:01:42.156Z,19.37
2019-02-16T18:04:12.550Z,25.17
2019-02-16T18:06:42.939Z,22.73
2019-02-16T18:09:22.193Z,22.40
2019-02-16T18:12:15.837Z,23.97
2019-02-16T18:14:46.226Z,22.63
2019-02-16T18:17:16.687Z,22.17
2019-02-16T18:20:02.323Z,23.77
2019-02-16T18:22:35.093Z,23.73
2019-02-16T18:25:05.430Z,23.13
2019-02-16T18:27:41.586Z,26.33
2019-02-16T18:30:31.118Z,24.30
2019-02-16T18:33:01.550Z,16.90
2019-02-16T18:35:40.831Z,14.50
2019-02-16T18:38:13.702Z,12.40
2019-02-16T18:40:56.047Z,12.40
2019-02-16T18:43:26.531Z,11.37
2019-02-16T18:46:05.712Z,13.00
2019-02-16T18:48:45.124Z,11.17
2019-02-16T18:51:15.643Z,10.47
2019-02-16T18:53:49.932Z,9.33
2019-02-16T18:56:20.335Z,10.87
2019-02-16T18:59:09.739Z,8.90
2019-02-16T19:01:58.182Z,8.83
2019-02-16T19:04:37.272Z,11.43
2019-02-16T19:07:07.718Z,10.43
2019-02-16T19:09:56.935Z,10.10
2019-02-16T19:12:33.131Z,10.57
2019-02-16T19:15:06.378Z,10.23
2019-02-16T19:17:36.648Z,10.13
2019-02-16T19:20:25.271Z,10.07
2019-02-16T19:23:13.508Z,9.40
2019-02-16T19:25:58.688Z,8.10
2019-02-16T19:28:46.927Z,9.90
2019-02-16T19:31:32.279Z,9.23
2019-02-16T19:34:06.361Z,9.30
2019-02-16T19:36:36.644Z,8.67
2019-02-16T19:39:26.847Z,9.10
2019-02-16T19:41:57.189Z,8.67
2019-02-16T19:44:30.376Z,9.43
2019-02-16T19:47:07.997Z,9.37
2019-02-16T19:49:39.147Z,8.93
2019-02-16T19:52:10.833Z,12.77
2019-02-16T19:54:44.380Z,11.37
2019-02-16T19:57:26.340Z,11.10
2019-02-16T19:59:50.538Z,10.97
2019-02-16T20:02:23.810Z,11.07
2019-02-16T20:04:54.335Z,10.47
2019-02-16T20:07:39.357Z,10.60
2019-02-16T20:10:12.697Z,9.87
2019-02-16T20:12:46.155Z,11.23
2019-02-16T20:15:28.516Z,9.73
2019-02-16T20:20:51.626Z,9.20
2019-02-16T20:23:25.015Z,9.53
2019-02-16T20:25:57.739Z,10.13
2019-02-16T20:28:28.655Z,9.67
2019-02-16T20:31:02.817Z,8.93
2019-02-16T20:33:33.321Z,10.90
2019-02-16T20:36:15.725Z,9.80
2019-02-16T20:38:46.917Z,9.60
2019-02-16T20:41:19.985Z,8.93
2019-02-16T20:44:08.131Z,8.33
2019-02-16T20:46:38.709Z,8.37
2019-02-16T20:49:12.028Z,9.00
2019-02-16T20:51:43.236Z,8.70
2019-02-16T20:54:20.543Z,9.40
2019-02-16T20:56:53.641Z,10.20
2019-02-16T20:59:26.619Z,9.20
2019-02-16T21:01:57.028Z,9.57
2019-02-16T21:04:36.472Z,10.10
2019-02-16T21:07:07.902Z,9.23
2019-02-16T21:09:45.405Z,10.70
2019-02-16T21:12:34.219Z,9.90
2019-02-16T21:15:13.553Z,8.80
2019-02-16T21:18:02.296Z,11.33
2019-02-16T21:20:44.605Z,11.27
2019-02-16T21:23:17.612Z,10.03
2019-02-16T21:25:59.730Z,11.33
2019-02-16T21:28:45.081Z,10.67
2019-02-16T21:31:30.477Z,11.23
2019-02-16T21:34:00.876Z,10.60
2019-02-16T21:36:49.398Z,10.40
2019-02-16T21:39:19.815Z,10.37
2019-02-16T21:42:05.556Z,10.67
2019-02-16T21:44:38.693Z,9.73
2019-02-16T21:47:09.327Z,10.37
2019-02-16T21:49:42.474Z,10.77
2019-02-16T21:52:12.820Z,10.03
2019-02-16T21:54:45.806Z,10.50
2019-02-16T21:57:35.237Z,10.40
2019-02-16T22:00:05.571Z,10.17
2019-02-16T22:02:35.915Z,10.07
2019-02-16T22:05:24.559Z,11.13
2019-02-16T22:07:54.850Z,10.87
2019-02-16T22:10:28.025Z,10.97
2019-02-16T22:13:01.271Z,9.73
2019-02-16T22:15:31.998Z,10.27
2019-02-16T22:18:02.483Z,11.00
2019-02-16T22:20:33.252Z,12.57
2019-02-16T22:23:05.212Z,10.53
2019-02-16T22:25:34.675Z,10.30
2019-02-16T22:28:05.678Z,11.50
2019-02-16T22:30:36.097Z,10.93
2019-02-16T22:33:06.638Z,11.67
2019-02-16T22:35:39.027Z,12.03
2019-02-16T22:38:09.539Z,13.10
2019-02-16T22:40:39.879Z,11.77
2019-02-16T22:43:10.663Z,12.77
2019-02-16T22:45:41.091Z,12.77
2019-02-16T22:48:11.688Z,10.77
2019-02-16T22:50:42.164Z,11.97
2019-02-16T22:53:12.610Z,12.57
2019-02-16T22:55:43.201Z,13.10
2019-02-16T22:58:13.770Z,12.20
2019-02-16T23:00:44.180Z,12.43
2019-02-16T23:03:14.559Z,12.53
2019-02-16T23:05:45.013Z,11.40
2019-02-16T23:08:15.399Z,14.00
2019-02-16T23:10:45.791Z,15.67
2019-02-16T23:13:18.223Z,14.83
2019-02-16T23:16:08.975Z,15.77
2019-02-16T23:18:39.396Z,17.83
2019-02-16T23:21:10.600Z,17.13
2019-02-16T23:23:41.253Z,17.63
2019-02-16T23:26:11.666Z,17.43
2019-02-16T23:28:42.115Z,16.67
2019-02-16T23:31:12.464Z,16.57
2019-02-16T23:33:42.937Z,17.73
2019-02-16T23:36:13.509Z,15.73
2019-02-16T23:38:43.909Z,18.47
2019-02-16T23:41:15.338Z,16.70
2019-02-16T23:43:49.888Z,17.77
2019-02-16T23:46:20.552Z,17.10
2019-02-16T23:48:51.024Z,17.40
2019-02-16T23:51:22.461Z,18.23
2019-02-16T23:53:52.933Z,16.80
2019-02-16T23:56:23.641Z,16.10
2019-02-16T23:58:58.123Z,16.70
